sensor_id;sensor_type;location;lat;lon;timestamp;pressure;altitude;pressure_sealevel;temperature;humidity
68179;BME280;54998;42.656;23.382;2023-04-04T00:01:22;93436.34;;;5.96;95.50
68179;BME280;54998;42.656;23.382;2023-04-04T00:03:48;93438.75;;;5.97;95.44
68179;BME280;54998;42.656;23.382;2023-04-04T00:06:16;93430.72;;;5.92;95.10
68179;BME280;54998;42.656;23.382;2023-04-04T00:08:41;93431.41;;;5.94;95.06
68179;BME280;54998;42.656;23.382;2023-04-04T00:11:07;93435.53;;;5.95;95.19
68179;BME280;54998;42.656;23.382;2023-04-04T00:13:32;93436.84;;;6.00;95.19
68179;BME280;54998;42.656;23.382;2023-04-04T00:15:58;93439.84;;;5.95;95.10
68179;BME280;54998;42.656;23.382;2023-04-04T00:18:23;93430.44;;;5.95;95.33
68179;BME280;54998;42.656;23.382;2023-04-04T00:20:49;93436.09;;;5.89;95.64
68179;BME280;54998;42.656;23.382;2023-04-04T00:23:14;93440.19;;;6.00;96.04
68179;BME280;54998;42.656;23.382;2023-04-04T00:25:39;93441.63;;;6.03;96.05
68179;BME280;54998;42.656;23.382;2023-04-04T00:28:05;93437.94;;;5.97;96.05
68179;BME280;54998;42.656;23.382;2023-04-04T00:30:30;93430.72;;;5.92;96.10
68179;BME280;54998;42.656;23.382;2023-04-04T00:32:58;93433.00;;;5.95;96.25
68179;BME280;54998;42.656;23.382;2023-04-04T00:35:25;93438.09;;;5.95;95.95
68179;BME280;54998;42.656;23.382;2023-04-04T00:37:51;93442.94;;;6.07;95.69
68179;BME280;54998;42.656;23.382;2023-04-04T00:40:16;93428.19;;;6.10;95.19
68179;BME280;54998;42.656;23.382;2023-04-04T00:42:42;93422.22;;;6.02;95.32
68179;BME280;54998;42.656;23.382;2023-04-04T00:45:08;93415.16;;;5.95;95.68
68179;BME280;54998;42.656;23.382;2023-04-04T00:47:33;93412.72;;;5.94;95.77
68179;BME280;54998;42.656;23.382;2023-04-04T00:49:59;93407.88;;;6.01;95.16
68179;BME280;54998;42.656;23.382;2023-04-04T00:52:25;93403.16;;;6.06;95.00
68179;BME280;54998;42.656;23.382;2023-04-04T00:54:51;93405.41;;;6.09;95.02
68179;BME280;54998;42.656;23.382;2023-04-04T00:57:17;93400.94;;;6.11;94.67
68179;BME280;54998;42.656;23.382;2023-04-04T00:59:43;93400.69;;;6.14;94.57
68179;BME280;54998;42.656;23.382;2023-04-04T01:02:09;93402.19;;;6.07;94.36
68179;BME280;54998;42.656;23.382;2023-04-04T01:04:35;93405.97;;;6.03;94.35
68179;BME280;54998;42.656;23.382;2023-04-04T01:07:01;93410.78;;;6.06;94.65
68179;BME280;54998;42.656;23.382;2023-04-04T01:09:27;93412.63;;;5.95;94.50
68179;BME280;54998;42.656;23.382;2023-04-04T01:11:54;93413.59;;;5.94;94.96
68179;BME280;54998;42.656;23.382;2023-04-04T01:14:20;93409.38;;;5.93;95.45
68179;BME280;54998;42.656;23.382;2023-04-04T01:16:47;93423.09;;;5.92;95.44
68179;BME280;54998;42.656;23.382;2023-04-04T01:19:29;93414.94;;;5.89;96.11
68179;BME280;54998;42.656;23.382;2023-04-04T01:21:58;93416.69;;;5.88;96.25
68179;BME280;54998;42.656;23.382;2023-04-04T01:24:24;93424.31;;;5.88;96.56
68179;BME280;54998;42.656;23.382;2023-04-04T01:26:51;93418.34;;;5.80;96.73
68179;BME280;54998;42.656;23.382;2023-04-04T01:29:17;93429.84;;;5.84;96.80
68179;BME280;54998;42.656;23.382;2023-04-04T01:31:47;93434.38;;;5.90;97.09
68179;BME280;54998;42.656;23.382;2023-04-04T01:36:50;93429.50;;;5.96;96.92
68179;BME280;54998;42.656;23.382;2023-04-04T01:39:26;93425.63;;;5.92;97.02
68179;BME280;54998;42.656;23.382;2023-04-04T01:41:57;93423.00;;;5.84;97.15
68179;BME280;54998;42.656;23.382;2023-04-04T01:44:23;93425.41;;;5.86;97.44
68179;BME280;54998;42.656;23.382;2023-04-04T01:46:52;93417.13;;;5.84;97.33
68179;BME280;54998;42.656;23.382;2023-04-04T01:49:19;93410.41;;;5.83;97.48
68179;BME280;54998;42.656;23.382;2023-04-04T01:51:44;93412.38;;;5.89;97.12
68179;BME280;54998;42.656;23.382;2023-04-04T01:54:10;93405.69;;;5.88;96.44
68179;BME280;54998;42.656;23.382;2023-04-04T01:56:36;93402.06;;;5.90;95.93
68179;BME280;54998;42.656;23.382;2023-04-04T01:59:01;93395.94;;;5.83;94.59
68179;BME280;54998;42.656;23.382;2023-04-04T02:01:27;93385.75;;;5.83;93.47
68179;BME280;54998;42.656;23.382;2023-04-04T02:03:52;93397.19;;;5.79;92.05
68179;BME280;54998;42.656;23.382;2023-04-04T02:06:17;93396.53;;;5.77;91.24
68179;BME280;54998;42.656;23.382;2023-04-04T02:08:43;93398.13;;;5.78;91.25
68179;BME280;54998;42.656;23.382;2023-04-04T02:11:08;93393.13;;;5.68;91.56
68179;BME280;54998;42.656;23.382;2023-04-04T02:13:34;93395.50;;;5.70;91.12
68179;BME280;54998;42.656;23.382;2023-04-04T02:16:02;93401.56;;;5.69;90.84
68179;BME280;54998;42.656;23.382;2023-04-04T02:18:27;93398.06;;;5.52;90.13
68179;BME280;54998;42.656;23.382;2023-04-04T02:20:56;93388.91;;;5.41;90.25
68179;BME280;54998;42.656;23.382;2023-04-04T02:23:22;93383.28;;;5.38;89.40
68179;BME280;54998;42.656;23.382;2023-04-04T02:25:49;93391.78;;;5.46;88.88
68179;BME280;54998;42.656;23.382;2023-04-04T02:28:15;93390.88;;;5.47;87.67
68179;BME280;54998;42.656;23.382;2023-04-04T02:30:40;93388.03;;;5.50;88.75
68179;BME280;54998;42.656;23.382;2023-04-04T02:33:06;93391.13;;;5.44;89.43
68179;BME280;54998;42.656;23.382;2023-04-04T02:35:32;93392.09;;;5.43;90.03
68179;BME280;54998;42.656;23.382;2023-04-04T02:37:57;93386.44;;;5.49;89.73
68179;BME280;54998;42.656;23.382;2023-04-04T02:40:23;93390.00;;;5.56;89.88
68179;BME280;54998;42.656;23.382;2023-04-04T02:42:48;93389.84;;;5.58;89.91
68179;BME280;54998;42.656;23.382;2023-04-04T02:45:14;93396.38;;;5.61;89.68
68179;BME280;54998;42.656;23.382;2023-04-04T02:47:40;93392.09;;;5.61;90.21
68179;BME280;54998;42.656;23.382;2023-04-04T02:50:07;93395.59;;;5.78;89.06
68179;BME280;54998;42.656;23.382;2023-04-04T02:52:33;93393.09;;;5.86;87.35
68179;BME280;54998;42.656;23.382;2023-04-04T02:54:58;93390.56;;;5.86;87.13
68179;BME280;54998;42.656;23.382;2023-04-04T02:57:24;93393.63;;;5.90;86.46
68179;BME280;54998;42.656;23.382;2023-04-04T02:59:49;93391.34;;;6.05;84.42
68179;BME280;54998;42.656;23.382;2023-04-04T03:02:15;93380.94;;;6.16;83.46
68179;BME280;54998;42.656;23.382;2023-04-04T03:04:40;93382.53;;;6.17;83.24
68179;BME280;54998;42.656;23.382;2023-04-04T03:07:05;93383.25;;;6.27;83.27
68179;BME280;54998;42.656;23.382;2023-04-04T03:09:31;93385.47;;;6.30;83.21
68179;BME280;54998;42.656;23.382;2023-04-04T03:11:56;93383.59;;;6.32;81.93
68179;BME280;54998;42.656;23.382;2023-04-04T03:14:22;93391.56;;;6.37;83.37
68179;BME280;54998;42.656;23.382;2023-04-04T03:16:48;93388.09;;;6.38;83.34
68179;BME280;54998;42.656;23.382;2023-04-04T03:19:16;93388.41;;;6.35;84.06
68179;BME280;54998;42.656;23.382;2023-04-04T03:21:41;93384.22;;;6.34;85.31
68179;BME280;54998;42.656;23.382;2023-04-04T03:24:07;93387.94;;;6.40;85.42
68179;BME280;54998;42.656;23.382;2023-04-04T03:26:32;93379.38;;;6.49;84.95
68179;BME280;54998;42.656;23.382;2023-04-04T03:28:58;93384.34;;;6.51;84.89
68179;BME280;54998;42.656;23.382;2023-04-04T03:31:23;93381.28;;;6.47;86.25
68179;BME280;54998;42.656;23.382;2023-04-04T03:33:49;93384.03;;;6.54;87.71
68179;BME280;54998;42.656;23.382;2023-04-04T03:36:14;93384.47;;;6.49;88.15
68179;BME280;54998;42.656;23.382;2023-04-04T03:38:40;93390.03;;;6.45;88.89
68179;BME280;54998;42.656;23.382;2023-04-04T03:41:06;93394.94;;;6.12;89.44
68179;BME280;54998;42.656;23.382;2023-04-04T03:43:32;93401.09;;;6.09;90.43
68179;BME280;54998;42.656;23.382;2023-04-04T03:46:02;93397.03;;;6.16;91.14
68179;BME280;54998;42.656;23.382;2023-04-04T03:48:28;93395.56;;;6.14;91.38
68179;BME280;54998;42.656;23.382;2023-04-04T03:50:55;93396.81;;;6.10;91.58
68179;BME280;54998;42.656;23.382;2023-04-04T03:53:22;93397.16;;;6.15;92.01
68179;BME280;54998;42.656;23.382;2023-04-04T03:55:51;93391.81;;;6.00;92.46
68179;BME280;54998;42.656;23.382;2023-04-04T03:58:19;93394.56;;;6.07;92.69
68179;BME280;54998;42.656;23.382;2023-04-04T04:00:45;93398.78;;;6.16;92.79
68179;BME280;54998;42.656;23.382;2023-04-04T04:03:10;93385.28;;;6.24;92.40
68179;BME280;54998;42.656;23.382;2023-04-04T04:05:35;93392.97;;;6.32;91.62
68179;BME280;54998;42.656;23.382;2023-04-04T04:08:01;93384.19;;;6.26;91.44
68179;BME280;54998;42.656;23.382;2023-04-04T04:10:26;93382.44;;;6.27;91.38
68179;BME280;54998;42.656;23.382;2023-04-04T04:12:52;93389.28;;;6.26;91.44
68179;BME280;54998;42.656;23.382;2023-04-04T04:15:17;93386.28;;;6.31;90.72
68179;BME280;54998;42.656;23.382;2023-04-04T04:17:43;93381.34;;;6.29;90.10
68179;BME280;54998;42.656;23.382;2023-04-04T04:20:09;93385.63;;;6.29;89.62
68179;BME280;54998;42.656;23.382;2023-04-04T04:22:35;93391.88;;;6.34;89.99
68179;BME280;54998;42.656;23.382;2023-04-04T04:25:01;93402.38;;;6.31;90.14
68179;BME280;54998;42.656;23.382;2023-04-04T04:27:26;93408.59;;;6.37;90.04
68179;BME280;54998;42.656;23.382;2023-04-04T04:29:52;93407.81;;;6.36;90.20
68179;BME280;54998;42.656;23.382;2023-04-04T04:32:18;93408.97;;;6.42;90.86
68179;BME280;54998;42.656;23.382;2023-04-04T04:34:43;93407.09;;;6.44;91.19
68179;BME280;54998;42.656;23.382;2023-04-04T04:37:09;93411.41;;;6.52;91.13
68179;BME280;54998;42.656;23.382;2023-04-04T04:39:34;93413.50;;;6.56;90.95
68179;BME280;54998;42.656;23.382;2023-04-04T04:42:00;93423.09;;;6.63;90.44
68179;BME280;54998;42.656;23.382;2023-04-04T04:44:26;93419.91;;;6.61;90.49
68179;BME280;54998;42.656;23.382;2023-04-04T04:46:51;93430.59;;;6.64;90.47
68179;BME280;54998;42.656;23.382;2023-04-04T04:49:17;93430.34;;;6.75;90.33
68179;BME280;54998;42.656;23.382;2023-04-04T04:51:42;93431.50;;;6.81;90.06
68179;BME280;54998;42.656;23.382;2023-04-04T04:54:08;93430.16;;;6.69;90.94
68179;BME280;54998;42.656;23.382;2023-04-04T04:56:35;93436.09;;;6.77;91.64
68179;BME280;54998;42.656;23.382;2023-04-04T04:59:01;93436.75;;;6.79;91.42
68179;BME280;54998;42.656;23.382;2023-04-04T05:01:26;93436.78;;;6.88;91.55
68179;BME280;54998;42.656;23.382;2023-04-04T05:03:51;93439.84;;;6.99;90.61
68179;BME280;54998;42.656;23.382;2023-04-04T05:06:17;93451.22;;;7.13;90.40
68179;BME280;54998;42.656;23.382;2023-04-04T05:08:42;93443.59;;;7.22;90.09
68179;BME280;54998;42.656;23.382;2023-04-04T05:11:08;93445.38;;;7.21;89.95
68179;BME280;54998;42.656;23.382;2023-04-04T05:13:34;93447.44;;;7.26;89.69
68179;BME280;54998;42.656;23.382;2023-04-04T05:16:00;93456.91;;;7.33;89.94
68179;BME280;54998;42.656;23.382;2023-04-04T05:18:25;93463.94;;;7.48;89.68
68179;BME280;54998;42.656;23.382;2023-04-04T05:20:53;93463.81;;;7.57;88.90
68179;BME280;54998;42.656;23.382;2023-04-04T05:23:19;93464.31;;;7.53;88.77
68179;BME280;54998;42.656;23.382;2023-04-04T05:25:48;93461.41;;;7.56;89.32
68179;BME280;54998;42.656;23.382;2023-04-04T05:28:14;93460.63;;;7.55;88.03
68179;BME280;54998;42.656;23.382;2023-04-04T05:30:40;93465.47;;;7.24;87.72
68179;BME280;54998;42.656;23.382;2023-04-04T05:33:06;93470.41;;;7.26;88.14
68179;BME280;54998;42.656;23.382;2023-04-04T05:35:31;93469.66;;;7.41;87.86
68179;BME280;54998;42.656;23.382;2023-04-04T05:37:57;93470.22;;;7.61;87.41
68179;BME280;54998;42.656;23.382;2023-04-04T05:40:25;93472.81;;;7.86;86.43
68179;BME280;54998;42.656;23.382;2023-04-04T05:42:58;93471.53;;;7.82;86.24
68179;BME280;54998;42.656;23.382;2023-04-04T05:45:24;93477.75;;;7.79;86.35
68179;BME280;54998;42.656;23.382;2023-04-04T05:47:50;93477.31;;;8.09;86.09
68179;BME280;54998;42.656;23.382;2023-04-04T05:50:16;93476.22;;;8.28;85.59
68179;BME280;54998;42.656;23.382;2023-04-04T05:52:41;93476.22;;;8.11;84.70
68179;BME280;54998;42.656;23.382;2023-04-04T05:55:07;93481.16;;;8.13;84.40
68179;BME280;54998;42.656;23.382;2023-04-04T05:57:32;93480.84;;;8.08;84.48
68179;BME280;54998;42.656;23.382;2023-04-04T05:59:58;93481.31;;;8.19;84.30
68179;BME280;54998;42.656;23.382;2023-04-04T06:02:24;93478.44;;;8.39;84.03
68179;BME280;54998;42.656;23.382;2023-04-04T06:04:49;93478.63;;;8.62;83.31
68179;BME280;54998;42.656;23.382;2023-04-04T06:07:15;93484.38;;;8.39;82.88
68179;BME280;54998;42.656;23.382;2023-04-04T06:09:41;93480.50;;;8.19;83.78
68179;BME280;54998;42.656;23.382;2023-04-04T06:12:06;93484.66;;;8.12;83.71
68179;BME280;54998;42.656;23.382;2023-04-04T06:14:34;93483.69;;;8.13;83.34
68179;BME280;54998;42.656;23.382;2023-04-04T06:17:00;93488.97;;;8.19;83.47
68179;BME280;54998;42.656;23.382;2023-04-04T06:19:26;93489.13;;;8.26;83.45
68179;BME280;54998;42.656;23.382;2023-04-04T06:21:51;93479.88;;;8.17;83.43
68179;BME280;54998;42.656;23.382;2023-04-04T06:24:17;93486.13;;;8.22;82.93
68179;BME280;54998;42.656;23.382;2023-04-04T06:26:42;93495.88;;;8.43;82.28
68179;BME280;54998;42.656;23.382;2023-04-04T06:29:09;93495.09;;;8.43;81.38
68179;BME280;54998;42.656;23.382;2023-04-04T06:31:34;93501.94;;;8.34;81.35
68179;BME280;54998;42.656;23.382;2023-04-04T06:33:59;93500.81;;;8.37;82.24
68179;BME280;54998;42.656;23.382;2023-04-04T06:36:25;93505.44;;;8.33;81.74
68179;BME280;54998;42.656;23.382;2023-04-04T06:38:51;93510.44;;;8.59;81.40
68179;BME280;54998;42.656;23.382;2023-04-04T06:41:16;93520.66;;;8.59;80.52
68179;BME280;54998;42.656;23.382;2023-04-04T06:43:43;93518.59;;;8.47;80.68
68179;BME280;54998;42.656;23.382;2023-04-04T06:46:11;93525.13;;;8.57;80.77
68179;BME280;54998;42.656;23.382;2023-04-04T06:48:36;93524.66;;;8.62;80.35
68179;BME280;54998;42.656;23.382;2023-04-04T06:51:08;93530.72;;;7.69;81.17
68179;BME280;54998;42.656;23.382;2023-04-04T06:53:33;93536.03;;;6.81;82.70
68179;BME280;54998;42.656;23.382;2023-04-04T06:55:59;93538.84;;;6.52;81.91
68179;BME280;54998;42.656;23.382;2023-04-04T06:58:25;93546.72;;;6.05;82.11
68179;BME280;54998;42.656;23.382;2023-04-04T07:00:50;93559.25;;;5.70;81.69
68179;BME280;54998;42.656;23.382;2023-04-04T07:03:16;93574.84;;;5.58;81.04
68179;BME280;54998;42.656;23.382;2023-04-04T07:05:42;93580.44;;;5.24;81.07
68179;BME280;54998;42.656;23.382;2023-04-04T07:08:08;93582.91;;;5.43;80.70
68179;BME280;54998;42.656;23.382;2023-04-04T07:10:33;93593.50;;;4.91;81.34
68179;BME280;54998;42.656;23.382;2023-04-04T07:12:59;93601.41;;;4.79;80.60
68179;BME280;54998;42.656;23.382;2023-04-04T07:29:00;93623.88;;;4.25;77.02
68179;BME280;54998;42.656;23.382;2023-04-04T07:31:25;93621.31;;;4.25;76.57
68179;BME280;54998;42.656;23.382;2023-04-04T07:33:51;93621.59;;;4.31;76.46
68179;BME280;54998;42.656;23.382;2023-04-04T07:36:19;93636.97;;;4.10;76.80
68179;BME280;54998;42.656;23.382;2023-04-04T07:38:45;93628.63;;;3.99;76.71
68179;BME280;54998;42.656;23.382;2023-04-04T07:41:11;93630.88;;;3.82;77.34
68179;BME280;54998;42.656;23.382;2023-04-04T07:43:36;93626.59;;;3.83;78.10
68179;BME280;54998;42.656;23.382;2023-04-04T07:46:02;93641.28;;;3.79;77.18
68179;BME280;54998;42.656;23.382;2023-04-04T07:48:27;93642.34;;;3.77;77.01
68179;BME280;54998;42.656;23.382;2023-04-04T07:50:53;93625.69;;;3.84;76.75
68179;BME280;54998;42.656;23.382;2023-04-04T07:53:18;93650.97;;;4.05;75.67
68179;BME280;54998;42.656;23.382;2023-04-04T07:55:44;93637.22;;;4.07;75.29
68179;BME280;54998;42.656;23.382;2023-04-04T07:58:09;93613.41;;;3.89;74.95
68179;BME280;54998;42.656;23.382;2023-04-04T08:00:34;93653.59;;;3.84;75.65
68179;BME280;54998;42.656;23.382;2023-04-04T08:03:00;93652.88;;;4.22;75.15
68179;BME280;54998;42.656;23.382;2023-04-04T08:05:27;93658.25;;;4.39;73.64
68179;BME280;54998;42.656;23.382;2023-04-04T08:07:52;93678.84;;;4.45;73.67
68179;BME280;54998;42.656;23.382;2023-04-04T08:10:18;93668.34;;;4.00;75.17
68179;BME280;54998;42.656;23.382;2023-04-04T08:12:45;93679.56;;;3.97;75.60
68179;BME280;54998;42.656;23.382;2023-04-04T08:15:11;93685.19;;;3.70;77.97
68179;BME280;54998;42.656;23.382;2023-04-04T08:17:36;93697.69;;;3.62;78.21
68179;BME280;54998;42.656;23.382;2023-04-04T08:20:03;93694.25;;;3.21;79.97
68179;BME280;54998;42.656;23.382;2023-04-04T08:22:29;93700.09;;;3.33;80.29
68179;BME280;54998;42.656;23.382;2023-04-04T08:24:55;93718.78;;;3.11;79.64
68179;BME280;54998;42.656;23.382;2023-04-04T08:27:20;93707.31;;;2.95;79.65
68179;BME280;54998;42.656;23.382;2023-04-04T08:29:46;93715.94;;;2.72;79.27
68179;BME280;54998;42.656;23.382;2023-04-04T08:32:12;93724.59;;;2.69;78.84
68179;BME280;54998;42.656;23.382;2023-04-04T08:34:39;93707.16;;;2.76;79.78
68179;BME280;54998;42.656;23.382;2023-04-04T08:37:06;93707.03;;;2.77;79.14
68179;BME280;54998;42.656;23.382;2023-04-04T08:39:31;93696.66;;;2.80;79.32
68179;BME280;54998;42.656;23.382;2023-04-04T08:42:01;93714.44;;;2.69;79.94
68179;BME280;54998;42.656;23.382;2023-04-04T08:44:28;93696.53;;;2.82;79.32
68179;BME280;54998;42.656;23.382;2023-04-04T08:46:55;93698.25;;;2.60;79.90
68179;BME280;54998;42.656;23.382;2023-04-04T08:49:20;93679.94;;;2.57;80.31
68179;BME280;54998;42.656;23.382;2023-04-04T08:51:48;93707.19;;;2.64;79.66
68179;BME280;54998;42.656;23.382;2023-04-04T08:54:15;93679.03;;;2.46;79.05
68179;BME280;54998;42.656;23.382;2023-04-04T08:56:41;93727.50;;;2.42;79.86
68179;BME280;54998;42.656;23.382;2023-04-04T08:59:06;93732.94;;;2.37;79.92
68179;BME280;54998;42.656;23.382;2023-04-04T09:01:32;93729.13;;;2.43;79.72
68179;BME280;54998;42.656;23.382;2023-04-04T09:03:57;93731.47;;;2.35;80.53
68179;BME280;54998;42.656;23.382;2023-04-04T09:06:24;93733.41;;;2.31;81.59
68179;BME280;54998;42.656;23.382;2023-04-04T09:08:51;93756.31;;;2.30;81.64
68179;BME280;54998;42.656;23.382;2023-04-04T09:11:19;93760.13;;;2.24;81.33
68179;BME280;54998;42.656;23.382;2023-04-04T09:13:47;93761.16;;;2.10;81.72
68179;BME280;54998;42.656;23.382;2023-04-04T09:16:14;93764.84;;;2.06;82.20
68179;BME280;54998;42.656;23.382;2023-04-04T09:18:39;93762.09;;;1.98;82.18
68179;BME280;54998;42.656;23.382;2023-04-04T09:21:13;93756.34;;;2.07;82.61
68179;BME280;54998;42.656;23.382;2023-04-04T09:23:39;93754.13;;;2.14;83.08
68179;BME280;54998;42.656;23.382;2023-04-04T09:26:05;93770.81;;;2.16;81.95
68179;BME280;54998;42.656;23.382;2023-04-04T09:28:32;93756.78;;;2.35;81.47
68179;BME280;54998;42.656;23.382;2023-04-04T09:31:02;93763.69;;;2.33;82.03
68179;BME280;54998;42.656;23.382;2023-04-04T09:33:31;93767.78;;;2.45;81.69
68179;BME280;54998;42.656;23.382;2023-04-04T09:35:58;93776.66;;;2.51;81.52
68179;BME280;54998;42.656;23.382;2023-04-04T09:38:27;93764.97;;;2.71;80.78
68179;BME280;54998;42.656;23.382;2023-04-04T09:40:53;93743.06;;;2.37;79.55
68179;BME280;54998;42.656;23.382;2023-04-04T09:43:21;93755.25;;;2.43;80.39
68179;BME280;54998;42.656;23.382;2023-04-04T09:45:47;93751.94;;;2.75;79.52
68179;BME280;54998;42.656;23.382;2023-04-04T09:48:24;93749.25;;;3.20;77.84
68179;BME280;54998;42.656;23.382;2023-04-04T09:50:50;93750.66;;;3.76;75.61
68179;BME280;54998;42.656;23.382;2023-04-04T09:53:16;93739.25;;;3.70;75.01
68179;BME280;54998;42.656;23.382;2023-04-04T09:55:48;93772.63;;;3.66;73.66
68179;BME280;54998;42.656;23.382;2023-04-04T09:58:16;93774.06;;;2.84;75.91
68179;BME280;54998;42.656;23.382;2023-04-04T10:00:45;93767.31;;;3.27;76.91
68179;BME280;54998;42.656;23.382;2023-04-04T10:03:15;93772.84;;;3.32;76.26
68179;BME280;54998;42.656;23.382;2023-04-04T10:05:41;93784.47;;;3.35;75.99
68179;BME280;54998;42.656;23.382;2023-04-04T10:08:32;93769.31;;;3.23;76.02
68179;BME280;54998;42.656;23.382;2023-04-04T10:11:03;93775.22;;;2.80;76.10
68179;BME280;54998;42.656;23.382;2023-04-04T10:13:31;93787.72;;;2.93;76.55
68179;BME280;54998;42.656;23.382;2023-04-04T10:16:01;93798.47;;;2.85;76.80
68179;BME280;54998;42.656;23.382;2023-04-04T10:18:29;93797.94;;;2.59;77.98
68179;BME280;54998;42.656;23.382;2023-04-04T10:20:57;93808.69;;;2.95;79.39
68179;BME280;54998;42.656;23.382;2023-04-04T10:23:24;93788.84;;;2.57;77.44
68179;BME280;54998;42.656;23.382;2023-04-04T10:25:55;93797.50;;;2.54;77.74
68179;BME280;54998;42.656;23.382;2023-04-04T11:21:31;93832.38;;;3.17;71.42
68179;BME280;54998;42.656;23.382;2023-04-04T11:28:50;93848.53;;;3.04;71.21
68179;BME280;54998;42.656;23.382;2023-04-04T11:39:14;93854.78;;;2.89;72.75
68179;BME280;54998;42.656;23.382;2023-04-04T11:41:54;93861.41;;;3.01;71.74
68179;BME280;54998;42.656;23.382;2023-04-04T11:44:22;93863.50;;;2.96;72.74
68179;BME280;54998;42.656;23.382;2023-04-04T11:46:54;93857.41;;;2.99;73.19
68179;BME280;54998;42.656;23.382;2023-04-04T11:49:24;93860.25;;;3.05;73.22
68179;BME280;54998;42.656;23.382;2023-04-04T11:51:53;93864.22;;;2.87;73.94
68179;BME280;54998;42.656;23.382;2023-04-04T11:54:18;93867.94;;;2.60;75.03
68179;BME280;54998;42.656;23.382;2023-04-04T11:56:44;93874.38;;;2.87;74.68
68179;BME280;54998;42.656;23.382;2023-04-04T11:59:16;93858.63;;;3.16;72.85
68179;BME280;54998;42.656;23.382;2023-04-04T12:01:42;93858.16;;;3.22;72.13
68179;BME280;54998;42.656;23.382;2023-04-04T12:04:09;93861.38;;;3.24;72.06
68179;BME280;54998;42.656;23.382;2023-04-04T12:06:35;93872.78;;;3.18;72.13
68179;BME280;54998;42.656;23.382;2023-04-04T12:09:02;93869.84;;;3.02;73.10
68179;BME280;54998;42.656;23.382;2023-04-04T12:11:32;93852.97;;;3.12;73.39
68179;BME280;54998;42.656;23.382;2023-04-04T12:13:59;93855.34;;;3.04;73.17
68179;BME280;54998;42.656;23.382;2023-04-04T12:16:27;93840.81;;;2.95;72.94
68179;BME280;54998;42.656;23.382;2023-04-04T12:18:52;93875.97;;;2.77;72.85
68179;BME280;54998;42.656;23.382;2023-04-04T12:21:18;93876.00;;;2.32;74.75
68179;BME280;54998;42.656;23.382;2023-04-04T12:23:45;93885.22;;;2.33;74.93
68179;BME280;54998;42.656;23.382;2023-04-04T12:26:11;93872.09;;;2.39;74.86
68179;BME280;54998;42.656;23.382;2023-04-04T12:28:37;93888.88;;;2.40;75.06
68179;BME280;54998;42.656;23.382;2023-04-04T12:31:04;93876.34;;;2.61;75.39
68179;BME280;54998;42.656;23.382;2023-04-04T12:33:34;93854.47;;;2.49;75.16
68179;BME280;54998;42.656;23.382;2023-04-04T12:36:01;93879.91;;;2.47;75.05
68179;BME280;54998;42.656;23.382;2023-04-04T12:38:29;93862.28;;;2.12;76.39
68179;BME280;54998;42.656;23.382;2023-04-04T12:40:55;93870.41;;;1.81;77.74
68179;BME280;54998;42.656;23.382;2023-04-04T12:43:21;93875.72;;;2.01;77.29
68179;BME280;54998;42.656;23.382;2023-04-04T12:45:49;93876.16;;;1.83;76.30
68179;BME280;54998;42.656;23.382;2023-04-04T12:48:15;93880.94;;;2.11;76.36
68179;BME280;54998;42.656;23.382;2023-04-04T12:50:50;93851.78;;;1.94;76.01
68179;BME280;54998;42.656;23.382;2023-04-04T12:53:22;93875.97;;;1.98;76.13
68179;BME280;54998;42.656;23.382;2023-04-04T12:55:49;93884.78;;;1.81;76.38
68179;BME280;54998;42.656;23.382;2023-04-04T12:58:15;93895.69;;;1.81;76.61
68179;BME280;54998;42.656;23.382;2023-04-04T13:00:41;93894.78;;;1.82;76.44
68179;BME280;54998;42.656;23.382;2023-04-04T13:03:07;93890.66;;;1.93;75.91
68179;BME280;54998;42.656;23.382;2023-04-04T13:05:33;93897.72;;;1.65;76.14
68179;BME280;54998;42.656;23.382;2023-04-04T13:08:07;93909.81;;;1.73;76.41
68179;BME280;54998;42.656;23.382;2023-04-04T13:13:38;93910.59;;;2.09;75.51
68179;BME280;54998;42.656;23.382;2023-04-04T13:16:09;93915.25;;;1.91;74.66
68179;BME280;54998;42.656;23.382;2023-04-04T13:18:37;93909.56;;;1.40;75.97
68179;BME280;54998;42.656;23.382;2023-04-04T13:21:05;93926.50;;;1.51;75.63
68179;BME280;54998;42.656;23.382;2023-04-04T13:23:35;93909.44;;;1.66;75.30
68179;BME280;54998;42.656;23.382;2023-04-04T13:26:02;93919.84;;;1.85;74.96
68179;BME280;54998;42.656;23.382;2023-04-04T13:28:29;93932.03;;;1.80;74.15
68179;BME280;54998;42.656;23.382;2023-04-04T13:30:54;93909.88;;;1.60;74.95
68179;BME280;54998;42.656;23.382;2023-04-04T13:33:23;93919.25;;;1.47;75.65
68179;BME280;54998;42.656;23.382;2023-04-04T13:35:49;93938.06;;;1.42;75.76
68179;BME280;54998;42.656;23.382;2023-04-04T13:38:20;93923.78;;;1.54;75.16
68179;BME280;54998;42.656;23.382;2023-04-04T13:40:51;93928.28;;;1.62;75.27
68179;BME280;54998;42.656;23.382;2023-04-04T13:43:17;93934.22;;;1.50;75.35
68179;BME280;54998;42.656;23.382;2023-04-04T13:45:42;93940.44;;;1.57;75.26
68179;BME280;54998;42.656;23.382;2023-04-04T13:48:11;93947.28;;;1.43;76.05
68179;BME280;54998;42.656;23.382;2023-04-04T13:50:41;93951.78;;;1.51;76.21
68179;BME280;54998;42.656;23.382;2023-04-04T13:53:08;93924.69;;;1.53;76.22
68179;BME280;54998;42.656;23.382;2023-04-04T13:55:35;93943.72;;;1.46;75.94
68179;BME280;54998;42.656;23.382;2023-04-04T13:58:00;93963.53;;;1.28;77.39
68179;BME280;54998;42.656;23.382;2023-04-04T14:00:26;93966.91;;;1.03;78.33
68179;BME280;54998;42.656;23.382;2023-04-04T14:02:52;93951.38;;;0.96;79.23
68179;BME280;54998;42.656;23.382;2023-04-04T14:05:18;93971.34;;;0.99;79.65
68179;BME280;54998;42.656;23.382;2023-04-04T14:07:44;93963.47;;;1.04;79.05
68179;BME280;54998;42.656;23.382;2023-04-04T14:10:10;93981.97;;;1.05;79.19
68179;BME280;54998;42.656;23.382;2023-04-04T14:12:37;93984.31;;;0.95;79.63
68179;BME280;54998;42.656;23.382;2023-04-04T14:15:03;93974.28;;;1.06;79.22
68179;BME280;54998;42.656;23.382;2023-04-04T14:17:29;93986.66;;;0.85;78.86
68179;BME280;54998;42.656;23.382;2023-04-04T14:19:54;93992.50;;;0.98;79.73
68179;BME280;54998;42.656;23.382;2023-04-04T14:22:20;93979.06;;;0.98;79.00